Current Weather



TAF Data Links

METAR Data Links

Latest METAR/TAF Data


Available data for KAUS from the past 2 hours
AUSTIN, TX
Metar
KAUS 220853Z 18007KT 5SM -TSRA BR SCT013CB BKN038 OVC095 27/25 A2990 RMK AO2 RAB16 TSB36 SLP112 OCNL LTGICCCCG SW TS SW MOV NE P0003 60003 T02670250 58009 $

08:53 UTC

Wind: 180° 7kt

Visibility: 5 SM

Sky: SCT 1300 ft

Temp: 27 deg C / 80.6 deg F

Dewpoint: 25 deg C / 77 deg F

Pressure: 29.9 inHg

TAF
KAUS 220538Z 2206/2312 12005KT P6SM VCSH BKN015 OVC250 TEMPO 2208/2212 3SM -TSRA BKN015CB FM221400 29008KT P6SM VCSH BKN015 FM222200 31011KT P6SM BKN025


Available data for KEDC from the past 2 hours
AUSTIN EXEC, TX
Metar
KEDC 220855Z AUTO 20008KT 6SM -RA BKN009 OVC013 25/25 A2991 RMK AO2

08:55 UTC

Wind: 200° 8kt

Visibility: 6 SM

Sky: BKN 900 ft

Temp: 25 deg C / 77 deg F

Dewpoint: 25 deg C / 77 deg F

Pressure: 29.91 inHg



Available data for KRYW from the past 2 hours
LAGO VISTA, TX
Metar
KRYW 220855Z AUTO 22004KT 10SM +RA SCT010 SCT014 OVC020 24/24 A2994 RMK AO2 LTG DSNT NE AND SW P0001 60062 T02350235

08:55 UTC

Wind: 220° 4kt

Visibility: 10 SM

Sky: SCT 1000 ft

Temp: 24 deg C / 75.2 deg F

Dewpoint: 24 deg C / 75.2 deg F

Pressure: 29.94 inHg